createdAt,value
2023-05-14T00:00:18.290Z,15.9434
2023-05-14T00:01:20.010Z,15.8758
2023-05-14T00:02:21.636Z,15.8103
2023-05-14T00:03:23.361Z,15.7749
2023-05-14T00:04:24.895Z,15.7783
2023-05-14T00:05:26.563Z,15.8377
2023-05-14T00:06:28.180Z,15.9228
2023-05-14T00:07:30.273Z,15.9459
2023-05-14T00:08:31.460Z,15.9160
2023-05-14T00:09:33.158Z,15.8666
2023-05-14T00:10:34.766Z,15.7857
2023-05-14T00:11:36.445Z,15.7436
2023-05-14T00:12:38.070Z,15.7238
2023-05-14T00:13:39.701Z,15.7119
2023-05-14T00:14:41.366Z,15.7351
2023-05-14T00:15:43.017Z,15.8180
2023-05-14T00:16:44.629Z,15.9178
2023-05-14T00:17:46.380Z,15.9146
2023-05-14T00:18:47.916Z,15.8301
2023-05-14T00:19:49.571Z,15.7581
2023-05-14T00:20:51.728Z,15.7289
2023-05-14T00:21:52.832Z,15.6953
2023-05-14T00:22:54.539Z,15.6996
2023-05-14T00:23:56.159Z,15.7376
2023-05-14T00:24:57.822Z,15.7952
2023-05-14T00:25:59.426Z,15.8006
2023-05-14T00:27:01.079Z,15.7611
2023-05-14T00:28:02.744Z,15.7084
2023-05-14T00:29:04.331Z,15.6601
2023-05-14T00:30:06.113Z,15.6582
2023-05-14T00:31:07.697Z,15.6679
2023-05-14T00:32:09.258Z,15.7302
2023-05-14T00:33:10.998Z,15.7566
2023-05-14T00:34:12.568Z,15.7602
2023-05-14T00:35:14.251Z,15.7117
2023-05-14T00:36:15.847Z,15.6753
2023-05-14T00:37:17.536Z,15.6422
2023-05-14T00:38:19.278Z,15.6528
2023-05-14T00:39:20.754Z,15.7177
2023-05-14T00:40:22.871Z,15.7697
2023-05-14T00:41:24.065Z,15.7445
2023-05-14T00:42:25.724Z,15.6939
2023-05-14T00:43:27.386Z,15.6554
2023-05-14T00:44:29.089Z,15.6216
2023-05-14T00:45:30.637Z,15.6066
2023-05-14T00:46:32.324Z,15.6002
2023-05-14T00:47:34.030Z,15.6277
2023-05-14T00:48:35.623Z,15.6922
2023-05-14T00:49:37.248Z,15.7624
2023-05-14T00:50:38.970Z,15.7773
2023-05-14T00:51:40.524Z,15.7153
2023-05-14T00:52:42.255Z,15.6769
2023-05-14T00:53:43.859Z,15.6362
2023-05-14T00:54:45.556Z,15.6123
2023-05-14T00:55:47.027Z,15.6450
2023-05-14T00:56:48.754Z,15.6911
2023-05-14T00:57:50.317Z,15.6623
2023-05-14T00:58:52.996Z,15.6291
2023-05-14T00:59:53.753Z,15.6001
2023-05-14T01:00:55.291Z,15.5860
2023-05-14T01:01:56.922Z,15.5874
2023-05-14T01:02:58.701Z,15.6197
2023-05-14T01:04:00.290Z,15.6750
2023-05-14T01:05:02.319Z,15.6807
2023-05-14T01:06:03.495Z,15.6615
2023-05-14T01:07:05.139Z,15.6207
2023-05-14T01:08:06.770Z,15.6088
2023-05-14T01:09:08.431Z,15.5927
2023-05-14T01:10:11.044Z,15.6243
2023-05-14T01:11:11.753Z,15.6756
2023-05-14T01:12:13.355Z,15.6560
2023-05-14T01:13:14.968Z,15.6010
2023-05-14T01:14:17.108Z,15.5812
2023-05-14T01:15:18.613Z,15.5751
2023-05-14T01:16:20.774Z,15.5743
2023-05-14T01:17:21.534Z,15.6026
2023-05-14T01:18:23.218Z,15.6396
2023-05-14T01:19:24.915Z,15.6229
2023-05-14T01:20:26.639Z,15.5751
2023-05-14T01:21:28.201Z,15.5570
2023-05-14T01:22:29.919Z,15.5564
2023-05-14T01:23:31.398Z,15.5673
2023-05-14T01:24:33.085Z,15.5868
2023-05-14T01:25:34.789Z,15.6103
2023-05-14T01:26:36.472Z,15.5985
2023-05-14T01:27:38.704Z,15.5781
2023-05-14T01:28:39.794Z,15.5391
2023-05-14T01:29:41.317Z,15.5015
2023-05-14T01:30:43.355Z,15.5074
2023-05-14T01:31:44.651Z,15.5490
2023-05-14T01:32:46.322Z,15.5692
2023-05-14T01:33:47.889Z,15.5641
2023-05-14T01:34:49.542Z,15.5247
2023-05-14T01:35:51.251Z,15.5249
2023-05-14T01:36:53.263Z,15.5165
2023-05-14T01:37:54.502Z,15.5512
2023-05-14T01:38:56.109Z,15.6080
2023-05-14T01:39:57.798Z,15.6004
2023-05-14T01:40:59.426Z,15.5639
2023-05-14T01:42:01.318Z,15.5472
2023-05-14T01:43:02.759Z,15.5369
2023-05-14T01:44:04.485Z,15.5591
2023-05-14T01:45:05.973Z,15.5917
2023-05-14T01:46:07.669Z,15.6027
2023-05-14T01:47:09.800Z,15.6196
2023-05-14T01:48:11.140Z,15.6435
2023-05-14T01:49:12.542Z,15.6354
2023-05-14T01:50:14.241Z,15.5702
2023-05-14T01:51:15.861Z,15.5196
2023-05-14T01:52:17.814Z,15.5086
2023-05-14T01:53:19.216Z,15.5657
2023-05-14T01:54:20.824Z,15.6107
2023-05-14T01:55:22.451Z,15.5809
2023-05-14T01:56:24.119Z,15.5491
2023-05-14T01:57:25.796Z,15.5408
2023-05-14T01:58:27.386Z,15.5203
2023-05-14T01:59:29.104Z,15.5263
2023-05-14T02:00:30.613Z,15.5432
2023-05-14T02:01:33.325Z,15.5229
2023-05-14T02:02:33.969Z,15.4924
2023-05-14T02:03:35.576Z,15.4929
2023-05-14T02:04:37.203Z,15.4907
2023-05-14T02:05:38.841Z,15.5126
2023-05-14T02:06:40.710Z,15.5483
2023-05-14T02:07:42.195Z,15.6187
2023-05-14T02:08:43.752Z,15.6559
2023-05-14T02:09:45.457Z,15.6233
2023-05-14T02:10:47.048Z,15.5817
2023-05-14T02:11:48.795Z,15.5344
2023-05-14T02:12:50.386Z,15.5197
2023-05-14T02:13:52.045Z,15.5244
2023-05-14T02:14:53.639Z,15.5526
2023-05-14T02:15:55.350Z,15.5739
2023-05-14T02:16:56.949Z,15.5804
2023-05-14T02:17:58.836Z,15.6173
2023-05-14T02:19:01.281Z,15.6391
2023-05-14T02:20:01.878Z,15.5918
2023-05-14T02:21:03.549Z,15.5373
2023-05-14T02:22:05.164Z,15.5213
2023-05-14T02:23:07.761Z,15.5073
2023-05-14T02:24:08.498Z,15.4978
2023-05-14T02:25:10.080Z,15.5221
2023-05-14T02:26:11.708Z,15.5334
2023-05-14T02:27:13.395Z,15.5553
2023-05-14T02:28:15.747Z,15.5689
2023-05-14T02:29:16.678Z,15.5229
2023-05-14T02:30:18.296Z,15.4986
2023-05-14T02:31:20.068Z,15.4740
2023-05-14T02:32:21.603Z,15.4725
2023-05-14T02:33:23.375Z,15.4902
2023-05-14T02:34:25.051Z,15.5266
2023-05-14T02:35:26.542Z,15.5700
2023-05-14T02:36:28.245Z,15.5254
2023-05-14T02:37:29.824Z,15.5087
2023-05-14T02:38:31.491Z,15.5200
2023-05-14T02:39:33.077Z,15.5110
2023-05-14T02:40:34.773Z,15.4913
2023-05-14T02:41:36.346Z,15.4877
2023-05-14T02:42:38.221Z,15.4734
2023-05-14T02:43:39.641Z,15.4864
2023-05-14T02:44:41.334Z,15.5267
2023-05-14T02:45:42.968Z,15.5291
2023-05-14T02:46:44.623Z,15.5636
2023-05-14T02:47:46.384Z,15.5745
2023-05-14T02:48:48.739Z,15.5840
2023-05-14T02:49:49.526Z,15.5730
2023-05-14T02:50:51.222Z,15.5180
2023-05-14T02:51:52.799Z,15.4875
2023-05-14T02:52:54.703Z,15.6337
2023-05-14T02:53:57.196Z,16.0027
2023-05-14T02:54:58.866Z,16.4895
2023-05-14T02:55:59.622Z,17.1120
2023-05-14T02:57:01.188Z,17.9030
2023-05-14T02:58:02.863Z,18.1845
2023-05-14T02:59:04.579Z,18.1539
2023-05-14T03:00:06.151Z,18.0352
2023-05-14T03:01:07.867Z,17.9381
2023-05-14T03:02:09.407Z,17.8426
2023-05-14T03:03:11.118Z,17.7008
2023-05-14T03:04:12.688Z,17.5690
2023-05-14T03:05:14.314Z,17.4699
2023-05-14T03:06:15.995Z,17.4673
2023-05-14T03:07:17.643Z,17.5435
2023-05-14T03:08:19.329Z,17.6185
2023-05-14T03:09:20.900Z,17.5941
2023-05-14T03:10:22.686Z,17.5238
2023-05-14T03:11:24.340Z,17.4525
2023-05-14T03:12:25.821Z,17.3734
2023-05-14T03:13:27.507Z,17.4213
2023-05-14T03:14:29.146Z,17.5498
2023-05-14T03:15:30.791Z,17.6770
2023-05-14T03:16:33.379Z,17.6824
2023-05-14T03:17:34.088Z,17.6301
2023-05-14T03:18:35.836Z,17.5362
2023-05-14T03:19:37.370Z,17.4770
2023-05-14T03:20:38.932Z,17.4579
2023-05-14T03:21:40.630Z,17.5171
2023-05-14T03:22:42.235Z,17.5524
2023-05-14T03:23:43.969Z,17.6097
2023-05-14T03:24:45.538Z,17.6185
2023-05-14T03:25:47.562Z,17.6079
2023-05-14T03:26:49.208Z,17.5253
2023-05-14T03:27:50.593Z,17.4526
2023-05-14T03:28:52.100Z,17.5682
2023-05-14T03:29:53.746Z,17.7554
2023-05-14T03:30:55.745Z,17.8085
2023-05-14T03:31:57.354Z,17.7675
2023-05-14T03:32:58.990Z,17.6466
2023-05-14T03:34:00.409Z,17.5023
2023-05-14T03:35:02.017Z,17.5539
2023-05-14T03:36:03.686Z,17.6895
2023-05-14T03:37:05.266Z,17.8279
2023-05-14T03:38:07.008Z,17.8689
2023-05-14T03:39:08.648Z,17.8015
2023-05-14T03:40:10.267Z,17.6738
2023-05-14T03:41:11.864Z,17.5637
2023-05-14T03:42:13.568Z,17.5244
2023-05-14T03:43:15.160Z,17.5308
2023-05-14T03:44:16.854Z,17.6103
2023-05-14T03:45:18.558Z,17.6793
2023-05-14T03:46:20.129Z,17.7750
2023-05-14T03:47:22.064Z,17.8095
2023-05-14T03:48:23.841Z,17.7117
2023-05-14T03:49:25.067Z,17.6223
2023-05-14T03:50:26.714Z,17.6550
2023-05-14T03:51:28.304Z,17.6823
2023-05-14T03:52:30.057Z,17.6713
2023-05-14T03:53:31.659Z,17.6736
2023-05-14T03:54:33.271Z,17.6817
2023-05-14T03:55:34.862Z,17.6756
2023-05-14T03:56:36.612Z,17.6853
2023-05-14T03:57:38.198Z,17.6612
2023-05-14T03:58:39.866Z,17.6632
2023-05-14T03:59:41.465Z,17.6690
2023-05-14T04:00:43.094Z,17.7080
2023-05-14T04:01:44.923Z,17.7379
2023-05-14T04:02:46.562Z,17.7205
2023-05-14T04:03:48.580Z,17.7223
2023-05-14T04:04:49.814Z,17.6721
2023-05-14T04:05:51.878Z,17.6897
2023-05-14T04:06:53.922Z,17.6878
2023-05-14T04:07:54.593Z,17.6882
2023-05-14T04:08:56.361Z,17.7185
2023-05-14T04:09:57.921Z,17.7094
2023-05-14T04:10:59.524Z,17.6804
2023-05-14T04:12:01.186Z,17.6954
2023-05-14T04:13:02.837Z,17.7460
2023-05-14T04:14:05.367Z,17.7513
2023-05-14T04:15:06.149Z,17.7524
2023-05-14T04:16:07.835Z,17.7164
2023-05-14T04:17:09.447Z,17.6912
2023-05-14T04:18:11.029Z,17.7085
2023-05-14T04:19:12.787Z,17.7269
2023-05-14T04:20:14.348Z,17.7378
2023-05-14T04:21:16.039Z,17.7832
2023-05-14T04:22:17.612Z,17.8008
2023-05-14T04:23:19.233Z,17.8536
2023-05-14T04:24:20.908Z,17.8624
2023-05-14T04:25:22.664Z,17.8711
2023-05-14T04:26:24.165Z,17.8876
2023-05-14T04:27:25.892Z,17.9043
2023-05-14T04:28:27.516Z,17.9090
2023-05-14T04:29:29.176Z,17.9530
2023-05-14T04:30:30.889Z,17.9070
2023-05-14T04:31:33.440Z,17.8715
2023-05-14T04:32:34.088Z,17.9165
2023-05-14T04:33:35.722Z,17.9494
2023-05-14T04:34:37.342Z,17.9562
2023-05-14T04:35:39.023Z,17.9932
2023-05-14T04:36:40.639Z,18.0445
2023-05-14T04:37:42.368Z,18.1609
2023-05-14T04:38:43.994Z,18.1584
2023-05-14T04:39:45.586Z,18.0672
2023-05-14T04:40:47.227Z,18.0511
2023-05-14T04:41:48.876Z,18.0436
2023-05-14T04:42:50.580Z,18.0048
2023-05-14T04:43:52.140Z,18.0119
2023-05-14T04:44:53.811Z,18.0722
2023-05-14T04:45:55.432Z,18.1757
2023-05-14T04:46:57.136Z,18.1758
2023-05-14T04:47:58.768Z,18.1136
2023-05-14T04:49:00.361Z,18.0780
2023-05-14T04:50:02.137Z,18.0680
2023-05-14T04:51:05.634Z,18.1038
2023-05-14T04:52:05.318Z,18.1115
2023-05-14T04:53:06.985Z,18.2127
2023-05-14T04:54:08.597Z,18.3867
2023-05-14T04:55:10.287Z,18.6505
2023-05-14T04:56:11.965Z,18.9345
2023-05-14T04:57:13.597Z,19.1495
2023-05-14T04:58:15.174Z,19.3172
2023-05-14T04:59:16.904Z,19.4811
2023-05-14T05:00:19.394Z,19.8022
2023-05-14T05:01:20.177Z,20.1971
2023-05-14T05:02:21.798Z,20.4047
2023-05-14T05:03:23.408Z,20.4662
2023-05-14T05:04:25.082Z,20.6262
2023-05-14T05:05:26.698Z,20.8615
2023-05-14T05:06:28.317Z,21.0516
2023-05-14T05:07:30.073Z,21.1026
2023-05-14T05:08:31.700Z,21.1664
2023-05-14T05:09:33.275Z,21.1651
2023-05-14T05:10:34.936Z,21.3228
2023-05-14T05:11:36.619Z,21.4802
2023-05-14T05:12:39.180Z,21.2695
2023-05-14T05:13:39.894Z,21.2481
2023-05-14T05:14:41.436Z,21.2921
2023-05-14T05:15:43.535Z,21.4225
2023-05-14T05:16:45.655Z,21.5540
2023-05-14T05:17:46.436Z,21.5232
2023-05-14T05:18:48.060Z,21.4034
2023-05-14T05:19:49.660Z,21.4004
2023-05-14T05:20:51.279Z,21.5077
2023-05-14T05:21:52.927Z,21.6875
2023-05-14T05:22:54.615Z,21.9282
2023-05-14T05:23:56.272Z,21.5732
2023-05-14T05:24:57.845Z,21.4561
2023-05-14T05:25:59.549Z,21.5180
2023-05-14T05:27:01.249Z,21.5649
2023-05-14T05:28:02.839Z,21.7847
2023-05-14T05:29:04.465Z,21.9720
2023-05-14T05:30:06.233Z,21.7469
2023-05-14T05:31:07.857Z,21.8494
2023-05-14T05:32:09.436Z,21.8796
2023-05-14T05:33:11.266Z,21.8602
2023-05-14T05:34:12.726Z,22.1128
2023-05-14T05:35:14.501Z,21.9658
2023-05-14T05:36:16.077Z,21.8941
2023-05-14T05:37:17.784Z,21.9595
2023-05-14T05:38:19.424Z,21.9455
2023-05-14T05:39:21.067Z,22.1014
2023-05-14T05:40:22.770Z,22.1836
2023-05-14T05:41:24.316Z,21.7751
2023-05-14T05:42:25.913Z,21.6335
2023-05-14T05:43:27.582Z,21.8330
2023-05-14T05:44:29.263Z,22.0646
2023-05-14T05:45:30.867Z,22.3541
2023-05-14T05:46:32.603Z,22.2064
2023-05-14T05:47:34.143Z,21.9739
2023-05-14T05:48:35.763Z,22.1545
2023-05-14T05:49:37.455Z,22.2311
2023-05-14T05:50:39.078Z,22.3324
2023-05-14T05:51:40.714Z,22.4846
2023-05-14T05:52:42.314Z,22.1188
2023-05-14T05:53:44.903Z,21.9811
2023-05-14T05:54:45.671Z,22.1711
2023-05-14T05:55:47.317Z,22.1837
2023-05-14T05:56:48.888Z,22.3198
2023-05-14T05:57:50.602Z,22.3763
2023-05-14T05:58:52.949Z,22.1041
2023-05-14T05:59:54.911Z,22.0706
2023-05-14T06:00:55.468Z,22.0682
2023-05-14T06:01:57.194Z,22.0902
2023-05-14T06:02:58.822Z,22.3171
2023-05-14T06:04:00.512Z,22.1257
2023-05-14T06:05:02.214Z,22.0755
2023-05-14T06:06:03.734Z,22.2391
2023-05-14T06:07:05.651Z,22.2695
2023-05-14T06:08:07.028Z,22.3620
2023-05-14T06:09:08.686Z,22.5196
2023-05-14T06:10:10.358Z,22.1457
2023-05-14T06:11:11.894Z,22.0673
2023-05-14T06:12:13.624Z,22.2080
2023-05-14T06:13:15.229Z,22.2621
2023-05-14T06:14:16.937Z,22.2874
2023-05-14T06:15:18.917Z,22.5743
2023-05-14T06:16:20.199Z,22.3911
2023-05-14T06:17:21.811Z,22.4423
2023-05-14T06:18:23.485Z,22.4881
2023-05-14T06:19:25.145Z,22.5133
2023-05-14T06:20:26.906Z,22.6323
2023-05-14T06:21:28.408Z,22.6650
2023-05-14T06:22:30.041Z,22.4402
2023-05-14T06:23:31.641Z,22.6088
2023-05-14T06:24:33.448Z,22.7433
2023-05-14T06:25:34.976Z,22.7638
2023-05-14T06:26:36.632Z,22.8418
2023-05-14T06:27:38.246Z,22.7637
2023-05-14T06:28:39.992Z,22.3329
2023-05-14T06:29:41.563Z,22.5482
2023-05-14T06:30:43.283Z,22.6722
2023-05-14T06:31:44.898Z,22.7417
2023-05-14T06:32:46.593Z,22.9443
2023-05-14T06:33:48.112Z,22.6978
2023-05-14T06:34:49.883Z,22.5160
2023-05-14T06:35:51.446Z,22.7193
2023-05-14T06:36:53.103Z,22.7587
2023-05-14T06:37:54.803Z,22.8791
2023-05-14T06:38:56.368Z,23.0607
2023-05-14T06:39:58.172Z,22.7414
2023-05-14T06:40:59.707Z,22.5322
2023-05-14T06:42:01.367Z,22.8115
2023-05-14T06:43:02.987Z,22.9376
2023-05-14T06:44:04.603Z,23.0371
2023-05-14T06:45:06.256Z,23.0907
2023-05-14T06:46:08.426Z,22.6026
2023-05-14T06:47:09.615Z,22.5141
2023-05-14T06:48:11.235Z,22.7427
2023-05-14T06:49:12.852Z,22.7744
2023-05-14T06:50:14.561Z,22.9052
2023-05-14T06:51:16.901Z,22.8876
2023-05-14T06:52:17.766Z,22.5983
2023-05-14T06:53:19.419Z,22.5078
2023-05-14T06:54:21.068Z,22.4929
2023-05-14T06:55:22.700Z,22.4672
2023-05-14T06:56:24.405Z,22.5646
2023-05-14T06:57:25.943Z,22.8465
2023-05-14T06:58:27.627Z,22.8987
2023-05-14T06:59:29.216Z,22.6604
2023-05-14T07:00:30.980Z,22.7285
2023-05-14T07:01:32.532Z,22.8861
2023-05-14T07:02:34.158Z,22.9906
2023-05-14T07:03:36.301Z,23.1614
2023-05-14T07:04:37.469Z,23.2269
2023-05-14T07:05:39.048Z,22.8296
2023-05-14T07:06:40.801Z,22.8465
2023-05-14T07:07:42.356Z,22.9008
2023-05-14T07:08:44.051Z,22.9722
2023-05-14T07:09:45.630Z,23.1596
2023-05-14T07:10:47.385Z,22.7746
2023-05-14T07:11:49.480Z,22.5780
2023-05-14T07:12:50.616Z,22.8411
2023-05-14T07:13:52.266Z,22.9643
2023-05-14T07:14:53.933Z,23.1800
2023-05-14T07:15:55.533Z,23.3167
2023-05-14T07:16:57.245Z,22.9924
2023-05-14T07:17:58.859Z,22.9619
2023-05-14T07:19:00.558Z,23.2931
2023-05-14T07:20:02.134Z,23.3592
2023-05-14T07:21:03.801Z,23.4546
2023-05-14T07:22:05.414Z,23.2457
2023-05-14T07:23:07.050Z,22.8343
2023-05-14T07:24:08.716Z,22.9911
2023-05-14T07:25:10.344Z,23.1477
2023-05-14T07:26:12.015Z,23.1597
2023-05-14T07:27:13.615Z,23.3629
2023-05-14T07:28:15.254Z,23.1231
2023-05-14T07:29:16.983Z,22.6392
2023-05-14T07:30:18.533Z,22.5905
2023-05-14T07:31:20.309Z,22.8325
2023-05-14T07:32:21.852Z,22.9990
2023-05-14T07:33:23.509Z,23.2256
2023-05-14T07:34:25.148Z,23.1077
2023-05-14T07:35:26.747Z,22.7920
2023-05-14T07:36:28.426Z,22.9415
2023-05-14T07:37:30.109Z,23.1031
2023-05-14T07:38:31.720Z,23.1639
2023-05-14T07:39:33.345Z,23.3752
2023-05-14T07:40:34.980Z,22.9550
2023-05-14T07:41:37.333Z,22.8374
2023-05-14T07:42:38.263Z,23.0851
2023-05-14T07:43:39.949Z,23.1608
2023-05-14T07:44:41.616Z,23.2523
2023-05-14T07:45:43.214Z,23.3818
2023-05-14T07:46:44.928Z,23.0032
2023-05-14T07:47:46.534Z,22.6927
2023-05-14T07:48:48.126Z,22.5692
2023-05-14T07:49:49.778Z,22.6971
2023-05-14T07:50:51.444Z,22.8589
2023-05-14T07:51:53.843Z,22.9332
2023-05-14T07:52:54.813Z,23.1399
2023-05-14T07:53:56.512Z,23.3147
2023-05-14T07:54:58.279Z,23.3290
2023-05-14T07:55:59.770Z,23.2008
2023-05-14T07:57:01.511Z,23.2683
2023-05-14T07:58:03.574Z,23.2707
2023-05-14T07:59:04.751Z,23.2177
2023-05-14T08:00:06.545Z,23.3889
2023-05-14T08:01:09.078Z,23.5461
2023-05-14T08:02:09.711Z,23.5741
2023-05-14T08:03:11.452Z,23.6067
2023-05-14T08:04:13.159Z,23.4982
2023-05-14T08:05:14.608Z,23.0789
2023-05-14T08:06:16.273Z,23.0212
2023-05-14T08:07:17.906Z,23.2793
2023-05-14T08:08:19.516Z,23.3753
2023-05-14T08:09:21.210Z,23.5237
2023-05-14T08:10:24.025Z,23.3814
2023-05-14T08:11:24.420Z,23.1101
2023-05-14T08:12:27.094Z,23.0467
2023-05-14T08:13:27.722Z,23.0070
2023-05-14T08:14:29.632Z,22.8628
2023-05-14T08:15:31.023Z,22.8323
2023-05-14T08:16:32.785Z,22.6883
2023-05-14T08:17:34.363Z,22.3297
2023-05-14T08:18:36.040Z,22.2807
2023-05-14T08:19:38.561Z,22.2810
2023-05-14T08:20:39.294Z,22.3932
2023-05-14T08:21:41.052Z,22.5367
2023-05-14T08:22:42.685Z,22.2898
2023-05-14T08:23:44.552Z,22.1798
2023-05-14T08:24:45.926Z,22.2030
2023-05-14T08:25:47.519Z,22.1939
2023-05-14T08:26:49.264Z,22.4313
2023-05-14T08:27:50.823Z,22.5422
2023-05-14T08:28:52.488Z,22.1359
2023-05-14T08:29:54.056Z,22.0764
2023-05-14T08:30:55.759Z,22.0874
2023-05-14T08:31:57.610Z,22.1769
2023-05-14T08:32:59.716Z,22.4239
2023-05-14T08:34:00.687Z,22.3749
2023-05-14T08:35:02.278Z,22.1766
2023-05-14T08:36:03.996Z,22.0956
2023-05-14T08:37:05.640Z,21.9947
2023-05-14T08:38:08.266Z,22.1711
2023-05-14T08:39:09.029Z,22.3752
2023-05-14T08:40:10.523Z,22.0941
2023-05-14T08:41:12.317Z,21.8913
2023-05-14T08:42:13.858Z,21.8892
2023-05-14T08:43:15.580Z,21.9314
2023-05-14T08:44:17.155Z,22.1740
2023-05-14T08:45:18.864Z,22.3182
2023-05-14T08:46:20.422Z,22.1182
2023-05-14T08:47:22.123Z,22.0307
2023-05-14T08:48:23.774Z,22.0044
2023-05-14T08:49:25.366Z,22.1065
2023-05-14T08:50:27.455Z,22.3277
2023-05-14T08:51:28.636Z,22.2764
2023-05-14T08:52:30.283Z,21.9709
2023-05-14T08:53:31.953Z,21.8644
2023-05-14T08:54:33.619Z,21.8354
2023-05-14T08:55:35.213Z,22.1044
2023-05-14T08:56:36.830Z,22.3351
2023-05-14T08:57:38.542Z,21.8552
2023-05-14T08:58:40.200Z,21.5482
2023-05-14T08:59:41.894Z,21.5279
2023-05-14T09:00:43.459Z,21.6947
2023-05-14T09:01:45.146Z,21.9940
2023-05-14T09:02:46.805Z,22.1155
2023-05-14T09:03:48.351Z,21.5820
2023-05-14T09:04:49.979Z,21.4870
2023-05-14T09:05:51.807Z,21.4610
2023-05-14T09:06:53.305Z,21.5995
2023-05-14T09:07:55.009Z,21.9715
2023-05-14T09:08:56.586Z,21.9501
2023-05-14T09:09:58.322Z,21.4434
2023-05-14T09:11:00.868Z,21.4039
2023-05-14T09:12:01.583Z,21.4320
2023-05-14T09:13:03.215Z,21.6092
2023-05-14T09:14:04.775Z,21.8351
2023-05-14T09:15:07.250Z,21.7247
2023-05-14T09:16:08.156Z,21.2969
2023-05-14T09:17:09.828Z,21.1968
2023-05-14T09:18:11.372Z,21.2208
2023-05-14T09:19:13.193Z,21.5089
2023-05-14T09:20:14.693Z,21.7754
2023-05-14T09:21:16.491Z,21.5784
2023-05-14T09:22:17.985Z,21.1382
2023-05-14T09:23:19.710Z,21.0914
2023-05-14T09:24:21.381Z,21.1406
2023-05-14T09:25:24.034Z,21.3858
2023-05-14T09:26:24.520Z,21.6752
2023-05-14T09:27:27.244Z,21.3931
2023-05-14T09:28:27.844Z,20.9508
2023-05-14T09:29:29.494Z,20.9169
2023-05-14T09:30:32.522Z,21.0432
2023-05-14T09:31:32.746Z,21.2737
2023-05-14T09:32:35.552Z,21.4838
2023-05-14T09:33:36.116Z,21.0777
2023-05-14T09:34:38.108Z,20.7844
2023-05-14T09:35:39.531Z,20.7527
2023-05-14T09:36:41.165Z,20.9312
2023-05-14T09:37:42.800Z,21.1928
2023-05-14T09:38:44.441Z,21.3181
2023-05-14T09:39:45.982Z,20.9074
2023-05-14T09:40:47.750Z,20.5872
2023-05-14T09:41:49.327Z,20.5515
2023-05-14T09:42:50.982Z,20.8061
2023-05-14T09:43:52.634Z,21.1068
2023-05-14T09:44:54.261Z,21.2600
2023-05-14T09:45:55.960Z,20.9520
2023-05-14T09:46:57.614Z,20.7326
2023-05-14T09:48:00.329Z,20.6897
2023-05-14T09:49:00.806Z,20.8193
2023-05-14T09:50:03.425Z,21.1014
2023-05-14T09:51:04.738Z,21.3619
2023-05-14T09:52:05.728Z,21.0466
2023-05-14T09:53:07.472Z,20.8692
2023-05-14T09:54:09.105Z,20.8637
2023-05-14T09:55:10.675Z,21.0319
2023-05-14T09:56:12.485Z,21.3948
2023-05-14T09:57:14.055Z,21.6177
2023-05-14T09:58:15.667Z,21.1799
2023-05-14T09:59:17.593Z,20.9680
2023-05-14T10:00:18.986Z,21.0194
2023-05-14T10:01:21.704Z,21.1797
2023-05-14T10:02:22.328Z,21.5356
2023-05-14T10:03:23.929Z,21.7518
2023-05-14T10:04:25.511Z,21.3324
2023-05-14T10:05:27.209Z,21.2145
2023-05-14T10:06:28.820Z,21.2563
2023-05-14T10:07:30.449Z,21.4627
2023-05-14T10:08:32.639Z,21.8203
2023-05-14T10:09:33.784Z,21.9297
2023-05-14T10:10:35.385Z,21.3468
2023-05-14T10:11:38.101Z,21.3605
2023-05-14T10:12:38.689Z,21.5356
2023-05-14T10:13:40.282Z,21.8404
2023-05-14T10:14:42.026Z,22.2397
2023-05-14T10:15:43.612Z,22.1650
2023-05-14T10:16:45.274Z,21.7767
2023-05-14T10:17:47.085Z,21.7612
2023-05-14T10:18:48.661Z,21.8006
2023-05-14T10:19:50.223Z,21.9674
2023-05-14T10:20:51.799Z,22.2414
2023-05-14T10:21:53.521Z,22.0823
2023-05-14T10:22:55.138Z,21.4956
2023-05-14T10:23:56.973Z,21.4635
2023-05-14T10:24:58.540Z,21.5680
2023-05-14T10:26:00.201Z,21.8167
2023-05-14T10:27:01.774Z,22.0273
2023-05-14T10:28:03.385Z,21.7895
2023-05-14T10:29:05.026Z,21.2978
2023-05-14T10:30:06.656Z,21.3713
2023-05-14T10:31:08.264Z,21.4807
2023-05-14T10:32:10.062Z,21.7563
2023-05-14T10:33:12.619Z,22.0879
2023-05-14T10:34:13.193Z,21.7448
2023-05-14T10:35:15.863Z,21.4314
2023-05-14T10:36:16.484Z,21.4723
2023-05-14T10:37:18.134Z,21.6016
2023-05-14T10:38:19.712Z,21.9480
2023-05-14T10:39:21.444Z,22.1818
2023-05-14T10:40:23.133Z,21.6903
2023-05-14T10:41:24.762Z,21.3957
2023-05-14T10:42:26.315Z,21.4316
2023-05-14T10:43:28.000Z,21.6345
2023-05-14T10:44:29.632Z,22.0183
2023-05-14T10:45:31.334Z,22.3089
2023-05-14T10:46:32.936Z,21.7630
2023-05-14T10:47:34.605Z,21.5151
2023-05-14T10:48:36.196Z,21.5698
2023-05-14T10:49:43.349Z,21.8151
2023-05-14T10:50:39.516Z,22.1543
2023-05-14T10:51:41.253Z,22.2103
2023-05-14T10:52:42.780Z,21.6106
2023-05-14T10:53:44.494Z,21.4899
2023-05-14T10:54:46.080Z,21.5944
2023-05-14T10:55:47.732Z,21.8314
2023-05-14T10:56:49.407Z,22.1810
2023-05-14T10:57:51.017Z,22.0734
2023-05-14T10:58:52.664Z,21.5625
2023-05-14T10:59:55.171Z,21.4895
2023-05-14T11:00:56.025Z,21.6640
2023-05-14T11:01:57.749Z,22.0195
2023-05-14T11:02:59.368Z,22.3314
2023-05-14T11:04:01.017Z,22.0871
2023-05-14T11:05:04.440Z,21.5609
2023-05-14T11:06:04.235Z,21.5709
2023-05-14T11:07:05.905Z,21.7238
2023-05-14T11:08:07.574Z,21.9912
2023-05-14T11:09:09.131Z,22.2911
2023-05-14T11:10:10.859Z,22.0164
2023-05-14T11:11:12.508Z,21.4388
2023-05-14T11:12:14.065Z,21.3581
2023-05-14T11:13:15.681Z,21.4197
2023-05-14T11:14:17.434Z,21.6420
2023-05-14T11:15:19.029Z,21.9414
2023-05-14T11:16:23.760Z,21.8098
2023-05-14T11:17:22.302Z,21.3026
2023-05-14T11:18:23.958Z,21.1341
2023-05-14T11:19:25.627Z,21.1909
2023-05-14T11:20:27.346Z,21.4590
2023-05-14T11:21:29.007Z,21.7315
2023-05-14T11:22:30.552Z,21.7065
2023-05-14T11:23:32.168Z,21.2447
2023-05-14T11:24:33.832Z,21.0751
2023-05-14T11:25:35.547Z,21.0611
2023-05-14T11:26:38.122Z,21.2710
2023-05-14T11:27:38.762Z,21.6017
2023-05-14T11:28:40.562Z,21.7012
2023-05-14T11:29:42.090Z,21.4047
2023-05-14T11:30:43.712Z,21.3060
2023-05-14T11:31:45.475Z,21.3094
2023-05-14T11:32:47.001Z,21.4984
2023-05-14T11:33:48.641Z,21.8328
2023-05-14T11:34:50.573Z,22.0327
2023-05-14T11:35:51.964Z,21.7031
2023-05-14T11:36:53.547Z,21.5561
2023-05-14T11:37:55.204Z,21.4974
2023-05-14T11:38:56.824Z,21.6593
2023-05-14T11:39:58.558Z,21.9231
2023-05-14T11:41:00.160Z,22.1258
2023-05-14T11:42:01.739Z,21.8752
2023-05-14T11:43:03.425Z,21.7376
2023-05-14T11:44:05.964Z,21.7048
2023-05-14T11:45:06.762Z,21.8007
2023-05-14T11:46:08.436Z,22.0248
2023-05-14T11:47:10.059Z,22.3016
2023-05-14T11:48:11.649Z,22.0295
2023-05-14T11:49:13.308Z,21.7478
2023-05-14T11:50:14.906Z,21.7665
2023-05-14T11:51:16.717Z,21.7808
2023-05-14T11:52:18.209Z,21.9972
2023-05-14T11:53:19.873Z,22.3042
2023-05-14T11:54:21.593Z,22.2762
2023-05-14T11:55:23.207Z,22.1115
2023-05-14T11:56:24.820Z,22.0599
2023-05-14T11:57:26.503Z,22.1417
2023-05-14T11:58:28.048Z,22.3142
2023-05-14T11:59:29.663Z,22.4858
2023-05-14T12:00:31.317Z,22.0864
2023-05-14T12:01:33.016Z,21.8881
2023-05-14T12:02:34.712Z,21.8017
2023-05-14T12:03:36.386Z,21.8395
2023-05-14T12:04:37.939Z,21.9874
2023-05-14T12:05:40.039Z,22.0928
2023-05-14T12:06:41.189Z,21.7454
2023-05-14T12:07:42.820Z,21.5570
2023-05-14T12:08:45.483Z,21.4914
2023-05-14T12:09:46.077Z,21.5107
2023-05-14T12:10:47.753Z,21.5710
2023-05-14T12:11:49.412Z,21.7850
2023-05-14T12:12:51.064Z,21.7111
2023-05-14T12:13:52.643Z,21.4108
2023-05-14T12:14:54.307Z,21.2441
2023-05-14T12:15:56.015Z,21.2208
2023-05-14T12:16:57.653Z,21.3615
2023-05-14T12:17:59.276Z,21.6448
2023-05-14T12:19:01.560Z,21.7461
2023-05-14T12:20:02.545Z,21.4462
2023-05-14T12:21:04.230Z,21.2558
2023-05-14T12:22:06.045Z,21.2138
2023-05-14T12:23:07.658Z,21.3931
2023-05-14T12:24:09.229Z,21.6999
2023-05-14T12:25:10.924Z,21.8591